GLD1154 SBCF-SBSP
Flight info
| Callsign | GLD1154 |
|---|---|
| Flight time | 0h 57m |
| Altitude | 30000 |
| Route | ANDEM UZ30 ENTIT |
| Aircraft | B738/M-SDFGIRY/S |
Departure
| Time | 2026-05-06 01:45 |
|---|---|
| Airport | Tancredo Neves International Airport (SBCF) |
Arrival
| Time | 2026-05-06 02:42 |
|---|---|
| Airport | Congonhas–Deputado Freitas Nobre Airport (SBSP) |
| Time | Latitude | Longitude | Altitude | Speed | Heading |
|---|---|---|---|---|---|
| 2026-05-06 01:26 | -19.63394 | -43.96292 | 2804 ft | 0 kts | 27° |
| 2026-05-06 01:36 | -19.63415 | -43.96302 | 2806 ft | 4 kts | 9° |
| 2026-05-06 01:36 | -19.63436 | -43.96299 | 2808 ft | 4 kts | 306° |
| 2026-05-06 01:36 | -19.63439 | -43.96294 | 2807 ft | 1 kts | 300° |
| 2026-05-06 01:39 | -19.63436 | -43.96302 | 2804 ft | 4 kts | 296° |
| 2026-05-06 01:39 | -19.63409 | -43.96357 | 2804 ft | 12 kts | 297° |
| 2026-05-06 01:39 | -19.63348 | -43.96448 | 2804 ft | 17 kts | 316° |
| 2026-05-06 01:39 | -19.63261 | -43.96528 | 2804 ft | 16 kts | 319° |
| 2026-05-06 01:40 | -19.63178 | -43.96603 | 2804 ft | 16 kts | 320° |
| 2026-05-06 01:40 | -19.63097 | -43.96676 | 2804 ft | 15 kts | 319° |
| 2026-05-06 01:40 | -19.63020 | -43.96747 | 2804 ft | 14 kts | 319° |
| 2026-05-06 01:40 | -19.62946 | -43.96814 | 2804 ft | 14 kts | 320° |
| 2026-05-06 01:41 | -19.62875 | -43.96878 | 2804 ft | 13 kts | 320° |
| 2026-05-06 01:41 | -19.62806 | -43.96940 | 2804 ft | 13 kts | 316° |
| 2026-05-06 01:41 | -19.62789 | -43.97027 | 2807 ft | 12 kts | 254° |
| 2026-05-06 01:41 | -19.62837 | -43.97102 | 2805 ft | 12 kts | 241° |
| 2026-05-06 01:42 | -19.62804 | -43.97175 | 2805 ft | 12 kts | 318° |
| 2026-05-06 01:42 | -19.62744 | -43.97232 | 2805 ft | 12 kts | 318° |
| 2026-05-06 01:42 | -19.62673 | -43.97297 | 2806 ft | 17 kts | 319° |
| 2026-05-06 01:42 | -19.62583 | -43.97379 | 2804 ft | 17 kts | 319° |
| 2026-05-06 01:43 | -19.62496 | -43.97459 | 2804 ft | 16 kts | 319° |
| 2026-05-06 01:43 | -19.62412 | -43.97537 | 2804 ft | 16 kts | 319° |
| 2026-05-06 01:43 | -19.62332 | -43.97611 | 2804 ft | 15 kts | 319° |
| 2026-05-06 01:43 | -19.62256 | -43.97684 | 2805 ft | 14 kts | 312° |
| 2026-05-06 01:44 | -19.62263 | -43.97766 | 2807 ft | 10 kts | 220° |
| 2026-05-06 01:44 | -19.62327 | -43.97779 | 2804 ft | 9 kts | 177° |
| 2026-05-06 01:44 | -19.62391 | -43.97774 | 2803 ft | 9 kts | 162° |
| 2026-05-06 01:44 | -19.62441 | -43.97733 | 2804 ft | 9 kts | 138° |
| 2026-05-06 01:45 | -19.62625 | -43.97562 | 2802 ft | 73 kts | 139° |
| 2026-05-06 01:45 | -19.63196 | -43.97035 | 2804 ft | 142 kts | 139° |
| 2026-05-06 01:45 | -19.64071 | -43.96211 | 3004 ft | 184 kts | 138° |
| 2026-05-06 01:45 | -19.65026 | -43.95312 | 3951 ft | 181 kts | 137° |
| 2026-05-06 01:46 | -19.65946 | -43.94468 | 5080 ft | 169 kts | 136° |
| 2026-05-06 01:46 | -19.66789 | -43.93585 | 5724 ft | 177 kts | 132° |
| 2026-05-06 01:46 | -19.67767 | -43.92643 | 5956 ft | 204 kts | 138° |
| 2026-05-06 01:46 | -19.69058 | -43.91863 | 6211 ft | 225 kts | 164° |
| 2026-05-06 01:47 | -19.70644 | -43.91786 | 6708 ft | 236 kts | 191° |
| 2026-05-06 01:47 | -19.72106 | -43.92579 | 7311 ft | 241 kts | 219° |
| 2026-05-06 01:47 | -19.73187 | -43.93951 | 7905 ft | 245 kts | 234° |
| 2026-05-06 01:47 | -19.74131 | -43.95464 | 8505 ft | 247 kts | 235° |
| 2026-05-06 01:48 | -19.75051 | -43.97021 | 9082 ft | 250 kts | 245° |
| 2026-05-06 01:48 | -19.75419 | -43.98856 | 9437 ft | 265 kts | 267° |
| 2026-05-06 01:48 | -19.75482 | -44.00741 | 9801 ft | 276 kts | 268° |
| 2026-05-06 01:48 | -19.75539 | -44.02796 | 10471 ft | 279 kts | 268° |
| 2026-05-06 01:49 | -19.75600 | -44.04863 | 11178 ft | 282 kts | 268° |
| 2026-05-06 01:49 | -19.75670 | -44.07012 | 11406 ft | 303 kts | 268° |
| 2026-05-06 01:49 | -19.75751 | -44.09340 | 11589 ft | 326 kts | 268° |
| 2026-05-06 01:49 | -19.75842 | -44.11825 | 11759 ft | 348 kts | 268° |
| 2026-05-06 01:50 | -19.75940 | -44.14436 | 11915 ft | 368 kts | 268° |
| 2026-05-06 01:50 | -19.76046 | -44.17208 | 12228 ft | 381 kts | 268° |
| 2026-05-06 01:50 | -19.76153 | -44.20047 | 12782 ft | 385 kts | 268° |
| 2026-05-06 01:50 | -19.76256 | -44.22900 | 13411 ft | 388 kts | 268° |
| 2026-05-06 01:51 | -19.76353 | -44.25774 | 14011 ft | 390 kts | 268° |
| 2026-05-06 01:51 | -19.76450 | -44.28663 | 14511 ft | 394 kts | 268° |
| 2026-05-06 01:51 | -19.76555 | -44.31584 | 15003 ft | 397 kts | 267° |
| 2026-05-06 01:51 | -19.76673 | -44.34519 | 15495 ft | 400 kts | 267° |
| 2026-05-06 01:52 | -19.76793 | -44.37481 | 15960 ft | 404 kts | 267° |
| 2026-05-06 01:52 | -19.76912 | -44.40476 | 16420 ft | 407 kts | 267° |
| 2026-05-06 01:52 | -19.77092 | -44.43478 | 16885 ft | 409 kts | 260° |
| 2026-05-06 01:52 | -19.77922 | -44.46319 | 17362 ft | 409 kts | 246° |
| 2026-05-06 01:53 | -19.79006 | -44.49124 | 17857 ft | 412 kts | 246° |
| 2026-05-06 01:53 | -19.80088 | -44.51960 | 18286 ft | 415 kts | 247° |
| 2026-05-06 01:53 | -19.81155 | -44.54823 | 18686 ft | 418 kts | 247° |
| 2026-05-06 01:53 | -19.82212 | -44.57707 | 19101 ft | 420 kts | 248° |
| 2026-05-06 01:54 | -19.83264 | -44.60609 | 19551 ft | 420 kts | 248° |
| 2026-05-06 01:54 | -19.84312 | -44.63507 | 19985 ft | 421 kts | 247° |
| 2026-05-06 01:54 | -19.85352 | -44.66380 | 20426 ft | 422 kts | 247° |
| 2026-05-06 01:54 | -19.86419 | -44.69331 | 20841 ft | 423 kts | 247° |
| 2026-05-06 01:55 | -19.87462 | -44.72216 | 21244 ft | 425 kts | 247° |
| 2026-05-06 01:55 | -19.88522 | -44.75149 | 21639 ft | 426 kts | 247° |
| 2026-05-06 01:55 | -19.89586 | -44.78095 | 22041 ft | 427 kts | 247° |
| 2026-05-06 01:55 | -19.90653 | -44.81054 | 22434 ft | 429 kts | 247° |
| 2026-05-06 01:56 | -19.91720 | -44.84012 | 22853 ft | 429 kts | 247° |
| 2026-05-06 01:56 | -19.92785 | -44.86971 | 23266 ft | 429 kts | 247° |
| 2026-05-06 01:56 | -19.93853 | -44.89938 | 23632 ft | 431 kts | 247° |
| 2026-05-06 01:56 | -19.94929 | -44.92926 | 23947 ft | 433 kts | 247° |
| 2026-05-06 01:57 | -19.96006 | -44.95919 | 24243 ft | 434 kts | 247° |
| 2026-05-06 01:57 | -19.97085 | -44.98923 | 24530 ft | 436 kts | 247° |
| 2026-05-06 01:57 | -19.98109 | -45.01773 | 24787 ft | 438 kts | 247° |
| 2026-05-06 01:57 | -19.99183 | -45.04766 | 25084 ft | 439 kts | 247° |
| 2026-05-06 01:58 | -20.00272 | -45.07801 | 25377 ft | 440 kts | 247° |
| 2026-05-06 01:58 | -20.01366 | -45.10852 | 25649 ft | 442 kts | 247° |
| 2026-05-06 01:58 | -20.02469 | -45.13930 | 25924 ft | 444 kts | 247° |
| 2026-05-06 01:58 | -20.03569 | -45.17002 | 26215 ft | 445 kts | 247° |
| 2026-05-06 01:59 | -20.04658 | -45.20047 | 26484 ft | 446 kts | 247° |
| 2026-05-06 01:59 | -20.05776 | -45.23173 | 26785 ft | 447 kts | 247° |
| 2026-05-06 01:59 | -20.06868 | -45.26229 | 27056 ft | 448 kts | 247° |
| 2026-05-06 01:59 | -20.07980 | -45.29342 | 27368 ft | 449 kts | 247° |
| 2026-05-06 02:00 | -20.09088 | -45.32446 | 27769 ft | 447 kts | 247° |
| 2026-05-06 02:00 | -20.10187 | -45.35526 | 28212 ft | 444 kts | 246° |
| 2026-05-06 02:00 | -20.11585 | -45.38442 | 28571 ft | 440 kts | 232° |
| 2026-05-06 02:00 | -20.13654 | -45.40803 | 28984 ft | 435 kts | 219° |
| 2026-05-06 02:01 | -20.16001 | -45.42826 | 29491 ft | 431 kts | 218° |
| 2026-05-06 02:01 | -20.18349 | -45.44803 | 29876 ft | 431 kts | 218° |
| 2026-05-06 02:01 | -20.20667 | -45.46767 | 30218 ft | 431 kts | 218° |
| 2026-05-06 02:01 | -20.23019 | -45.48786 | 30190 ft | 435 kts | 218° |
| 2026-05-06 02:02 | -20.27704 | -45.52866 | 30200 ft | 432 kts | 218° |
| 2026-05-06 02:02 | -20.32324 | -45.56903 | 30225 ft | 429 kts | 218° |
| 2026-05-06 02:03 | -20.36952 | -45.60949 | 30222 ft | 430 kts | 218° |
| 2026-05-06 02:03 | -20.41545 | -45.64967 | 30203 ft | 430 kts | 218° |
| 2026-05-06 02:04 | -20.46182 | -45.69028 | 30204 ft | 430 kts | 218° |
| 2026-05-06 02:04 | -20.50809 | -45.73084 | 30212 ft | 430 kts | 218° |
| 2026-05-06 02:05 | -20.55407 | -45.77118 | 30202 ft | 429 kts | 218° |
| 2026-05-06 02:05 | -20.60023 | -45.81171 | 30210 ft | 428 kts | 218° |
| 2026-05-06 02:06 | -20.64597 | -45.85190 | 30199 ft | 427 kts | 218° |
| 2026-05-06 02:06 | -20.69175 | -45.89217 | 30212 ft | 425 kts | 218° |
| 2026-05-06 02:07 | -20.73748 | -45.93240 | 30200 ft | 424 kts | 218° |
| 2026-05-06 02:07 | -20.78283 | -45.97230 | 30208 ft | 423 kts | 218° |
| 2026-05-06 02:08 | -20.82717 | -46.01135 | 30206 ft | 422 kts | 218° |
| 2026-05-06 02:08 | -20.87246 | -46.05129 | 30221 ft | 421 kts | 218° |
| 2026-05-06 02:09 | -20.91750 | -46.09103 | 30221 ft | 421 kts | 218° |
| 2026-05-06 02:09 | -20.96328 | -46.13026 | 30197 ft | 421 kts | 213° |
| 2026-05-06 02:10 | -21.01554 | -46.15785 | 30206 ft | 420 kts | 199° |
| 2026-05-06 02:10 | -21.07105 | -46.17687 | 30215 ft | 421 kts | 198° |
| 2026-05-06 02:11 | -21.12692 | -46.19643 | 30212 ft | 421 kts | 199° |
| 2026-05-06 02:11 | -21.18251 | -46.21607 | 30202 ft | 422 kts | 198° |
| 2026-05-06 02:12 | -21.23864 | -46.23513 | 30208 ft | 422 kts | 198° |
| 2026-05-06 02:12 | -21.29432 | -46.25394 | 30216 ft | 422 kts | 198° |
| 2026-05-06 02:13 | -21.35041 | -46.27298 | 30222 ft | 422 kts | 198° |
| 2026-05-06 02:13 | -21.40640 | -46.29206 | 30219 ft | 422 kts | 198° |
| 2026-05-06 02:14 | -21.46239 | -46.31115 | 30219 ft | 421 kts | 198° |
| 2026-05-06 02:14 | -21.51788 | -46.33010 | 30229 ft | 421 kts | 198° |
| 2026-05-06 02:15 | -21.57374 | -46.34919 | 30228 ft | 421 kts | 198° |
| 2026-05-06 02:15 | -21.62963 | -46.36830 | 30232 ft | 420 kts | 198° |
| 2026-05-06 02:16 | -21.68524 | -46.38768 | 30235 ft | 420 kts | 199° |
| 2026-05-06 02:16 | -21.74029 | -46.40794 | 30237 ft | 420 kts | 200° |
| 2026-05-06 02:17 | -21.79567 | -46.42845 | 30243 ft | 420 kts | 199° |
| 2026-05-06 02:17 | -21.85115 | -46.44891 | 30236 ft | 420 kts | 199° |
| 2026-05-06 02:18 | -21.90610 | -46.46912 | 30242 ft | 420 kts | 199° |
| 2026-05-06 02:18 | -21.96160 | -46.48954 | 30251 ft | 420 kts | 199° |
| 2026-05-06 02:19 | -22.01654 | -46.50978 | 30235 ft | 420 kts | 199° |
| 2026-05-06 02:19 | -22.07190 | -46.53018 | 30239 ft | 420 kts | 199° |
| 2026-05-06 02:20 | -22.15489 | -46.56080 | 30233 ft | 420 kts | 199° |
| 2026-05-06 02:21 | -22.20983 | -46.58109 | 30234 ft | 420 kts | 200° |
| 2026-05-06 02:21 | -22.26431 | -46.60123 | 29868 ft | 405 kts | 200° |
| 2026-05-06 02:21 | -22.29083 | -46.61104 | 29380 ft | 400 kts | 200° |
| 2026-05-06 02:22 | -22.31714 | -46.62078 | 28799 ft | 398 kts | 200° |
| 2026-05-06 02:22 | -22.34335 | -46.63049 | 28187 ft | 397 kts | 200° |
| 2026-05-06 02:22 | -22.36950 | -46.64017 | 27603 ft | 396 kts | 199° |
| 2026-05-06 02:22 | -22.39556 | -46.64982 | 26996 ft | 396 kts | 200° |
| 2026-05-06 02:23 | -22.42062 | -46.66210 | 26395 ft | 396 kts | 213° |
| 2026-05-06 02:23 | -22.44178 | -46.68088 | 25903 ft | 394 kts | 223° |
| 2026-05-06 02:23 | -22.46150 | -46.70146 | 25392 ft | 393 kts | 223° |
| 2026-05-06 02:23 | -22.48116 | -46.72185 | 24934 ft | 391 kts | 223° |
| 2026-05-06 02:24 | -22.50094 | -46.74205 | 24459 ft | 389 kts | 222° |
| 2026-05-06 02:24 | -22.52046 | -46.76177 | 24000 ft | 388 kts | 222° |
| 2026-05-06 02:24 | -22.54017 | -46.78162 | 23495 ft | 387 kts | 222° |
| 2026-05-06 02:24 | -22.55990 | -46.80151 | 23116 ft | 382 kts | 222° |
| 2026-05-06 02:25 | -22.57912 | -46.82093 | 22917 ft | 374 kts | 222° |
| 2026-05-06 02:25 | -22.59797 | -46.84000 | 22739 ft | 380 kts | 222° |
| 2026-05-06 02:25 | -22.61748 | -46.85975 | 22557 ft | 387 kts | 222° |
| 2026-05-06 02:25 | -22.63723 | -46.87975 | 22352 ft | 388 kts | 222° |
| 2026-05-06 02:26 | -22.65684 | -46.89962 | 22141 ft | 385 kts | 222° |
| 2026-05-06 02:26 | -22.67647 | -46.91929 | 21956 ft | 383 kts | 220° |
| 2026-05-06 02:26 | -22.69797 | -46.93639 | 21763 ft | 380 kts | 212° |
| 2026-05-06 02:26 | -22.72019 | -46.95125 | 21583 ft | 379 kts | 210° |
| 2026-05-06 02:27 | -22.74261 | -46.96565 | 21405 ft | 379 kts | 210° |
| 2026-05-06 02:27 | -22.76522 | -46.98034 | 21215 ft | 378 kts | 211° |
| 2026-05-06 02:27 | -22.78768 | -46.99524 | 21029 ft | 378 kts | 211° |
| 2026-05-06 02:27 | -22.80868 | -47.00940 | 20856 ft | 378 kts | 212° |
| 2026-05-06 02:28 | -22.82348 | -47.01946 | 20726 ft | 378 kts | 212° |
| 2026-05-06 02:28 | -22.85327 | -47.03980 | 20486 ft | 378 kts | 212° |
| 2026-05-06 02:28 | -22.86799 | -47.04987 | 20363 ft | 378 kts | 212° |
| 2026-05-06 02:28 | -22.89026 | -47.06507 | 20048 ft | 381 kts | 212° |
| 2026-05-06 02:29 | -22.91284 | -47.08037 | 19531 ft | 384 kts | 211° |
| 2026-05-06 02:29 | -22.93563 | -47.09576 | 19005 ft | 385 kts | 211° |
| 2026-05-06 02:29 | -22.95836 | -47.11111 | 18466 ft | 385 kts | 211° |
| 2026-05-06 02:29 | -22.98077 | -47.12627 | 17884 ft | 384 kts | 211° |
| 2026-05-06 02:30 | -23.00319 | -47.14125 | 17324 ft | 373 kts | 207° |
| 2026-05-06 02:30 | -23.02728 | -47.15014 | 16804 ft | 361 kts | 187° |
| 2026-05-06 02:30 | -23.05217 | -47.15044 | 16343 ft | 358 kts | 172° |
| 2026-05-06 02:30 | -23.07664 | -47.14556 | 15875 ft | 357 kts | 168° |
| 2026-05-06 02:31 | -23.10096 | -47.13989 | 15382 ft | 357 kts | 167° |
| 2026-05-06 02:31 | -23.12531 | -47.13412 | 14877 ft | 358 kts | 167° |
| 2026-05-06 02:31 | -23.14930 | -47.12856 | 14382 ft | 358 kts | 167° |
| 2026-05-06 02:31 | -23.17349 | -47.12309 | 13860 ft | 349 kts | 167° |
| 2026-05-06 02:32 | -23.19700 | -47.11787 | 13343 ft | 340 kts | 168° |
| 2026-05-06 02:32 | -23.21992 | -47.11281 | 12849 ft | 334 kts | 168° |
| 2026-05-06 02:32 | -23.24253 | -47.10783 | 12382 ft | 330 kts | 168° |
| 2026-05-06 02:32 | -23.26492 | -47.10290 | 11967 ft | 323 kts | 168° |
| 2026-05-06 02:33 | -23.28668 | -47.09814 | 11587 ft | 314 kts | 168° |
| 2026-05-06 02:33 | -23.30076 | -47.09506 | 11342 ft | 309 kts | 168° |
| 2026-05-06 02:34 | -23.36830 | -47.08026 | 10192 ft | 286 kts | 168° |
| 2026-05-06 02:34 | -23.38761 | -47.07603 | 9823 ft | 281 kts | 168° |
| 2026-05-06 02:34 | -23.40655 | -47.07153 | 9467 ft | 276 kts | 160° |
| 2026-05-06 02:34 | -23.42239 | -47.06058 | 9150 ft | 270 kts | 130° |
| 2026-05-06 02:35 | -23.43200 | -47.04336 | 8927 ft | 266 kts | 109° |
| 2026-05-06 02:35 | -23.43745 | -47.02400 | 8697 ft | 270 kts | 105° |
| 2026-05-06 02:35 | -23.44245 | -47.00420 | 8213 ft | 277 kts | 104° |
| 2026-05-06 02:35 | -23.44747 | -46.98412 | 7887 ft | 272 kts | 104° |
| 2026-05-06 02:36 | -23.45243 | -46.96450 | 7620 ft | 264 kts | 105° |
| 2026-05-06 02:36 | -23.45729 | -46.94541 | 7373 ft | 260 kts | 105° |
| 2026-05-06 02:36 | -23.46217 | -46.92641 | 7139 ft | 259 kts | 105° |
| 2026-05-06 02:36 | -23.46703 | -46.90755 | 6901 ft | 258 kts | 105° |
| 2026-05-06 02:37 | -23.47183 | -46.88898 | 6673 ft | 258 kts | 105° |
| 2026-05-06 02:37 | -23.47670 | -46.87020 | 6445 ft | 257 kts | 105° |
| 2026-05-06 02:37 | -23.48155 | -46.85147 | 6190 ft | 253 kts | 105° |
| 2026-05-06 02:37 | -23.48625 | -46.83333 | 5947 ft | 245 kts | 105° |
| 2026-05-06 02:38 | -23.49080 | -46.81577 | 5727 ft | 236 kts | 105° |
| 2026-05-06 02:38 | -23.49513 | -46.79907 | 5536 ft | 222 kts | 105° |
| 2026-05-06 02:38 | -23.49921 | -46.78332 | 5321 ft | 209 kts | 105° |
| 2026-05-06 02:38 | -23.50304 | -46.76851 | 5133 ft | 196 kts | 104° |
| 2026-05-06 02:39 | -23.50658 | -46.75484 | 4950 ft | 184 kts | 105° |
| 2026-05-06 02:39 | -23.51025 | -46.74168 | 4792 ft | 182 kts | 113° |
| 2026-05-06 02:39 | -23.51879 | -46.73187 | 4623 ft | 179 kts | 145° |
| 2026-05-06 02:39 | -23.52888 | -46.72452 | 4480 ft | 169 kts | 142° |
| 2026-05-06 02:40 | -23.53841 | -46.71756 | 4327 ft | 159 kts | 144° |
| 2026-05-06 02:40 | -23.54766 | -46.71111 | 4206 ft | 158 kts | 144° |
| 2026-05-06 02:40 | -23.55680 | -46.70478 | 4025 ft | 156 kts | 144° |
| 2026-05-06 02:40 | -23.56596 | -46.69845 | 3861 ft | 156 kts | 144° |
| 2026-05-06 02:41 | -23.57511 | -46.69212 | 3669 ft | 155 kts | 144° |
| 2026-05-06 02:41 | -23.58414 | -46.68587 | 3474 ft | 156 kts | 144° |
| 2026-05-06 02:41 | -23.59336 | -46.67949 | 3274 ft | 159 kts | 145° |
| 2026-05-06 02:41 | -23.60283 | -46.67295 | 3047 ft | 162 kts | 145° |
| 2026-05-06 02:42 | -23.61226 | -46.66642 | 2822 ft | 158 kts | 146° |
| 2026-05-06 02:42 | -23.62126 | -46.66022 | 2638 ft | 157 kts | 146° |
| 2026-05-06 02:42 | -23.62981 | -46.65424 | 2609 ft | 114 kts | 146° |
| 2026-05-06 02:42 | -23.63319 | -46.65208 | 2607 ft | 35 kts | 168° |
| 2026-05-06 02:43 | -23.63400 | -46.65266 | 2601 ft | 0 kts | 293° |
| 2026-05-06 02:44 | -23.63344 | -46.65323 | 2601 ft | 18 kts | 329° |
| 2026-05-06 02:44 | -23.63240 | -46.65395 | 2601 ft | 17 kts | 327° |
| 2026-05-06 02:44 | -23.63139 | -46.65465 | 2601 ft | 17 kts | 327° |
| 2026-05-06 02:45 | -23.63037 | -46.65518 | 2601 ft | 16 kts | 351° |
| 2026-05-06 02:45 | -23.62944 | -46.65564 | 2602 ft | 14 kts | 327° |
| 2026-05-06 02:45 | -23.62863 | -46.65619 | 2602 ft | 14 kts | 327° |
| 2026-05-06 02:45 | -23.62783 | -46.65675 | 2602 ft | 13 kts | 328° |
| 2026-05-06 02:46 | -23.62706 | -46.65728 | 2601 ft | 13 kts | 327° |
| 2026-05-06 02:46 | -23.62633 | -46.65780 | 2601 ft | 13 kts | 327° |
| 2026-05-06 02:46 | -23.62600 | -46.65837 | 2600 ft | 8 kts | 249° |
| 2026-05-06 02:46 | -23.62625 | -46.65881 | 2600 ft | 1 kts | 238° |
| 2026-05-06 02:47 | -23.62627 | -46.65885 | 2600 ft | 0 kts | 238° |